createdAt,value
2018-11-12T00:51:46.492Z,8.95
2018-11-12T00:54:14.864Z,5.57
2018-11-12T00:56:43.260Z,7.70
2018-11-12T00:59:11.663Z,7.37
2018-11-12T01:01:40.120Z,6.08
2018-11-12T01:04:08.682Z,6.37
2018-11-12T01:58:21.028Z,7.80
2018-11-12T02:00:50.004Z,8.90
2018-11-12T02:03:18.417Z,9.25
2018-11-12T02:10:42.228Z,9.27
2018-11-12T02:13:10.686Z,8.43
2018-11-12T02:15:39.065Z,11.00
2018-11-12T02:18:08.512Z,11.55
2018-11-12T02:20:36.950Z,8.60
2018-11-12T02:23:05.252Z,10.17
2018-11-12T02:25:33.669Z,7.60
2018-11-12T02:28:02.146Z,11.50
2018-11-12T02:30:35.966Z,6.80
2018-11-12T03:10:07.476Z,7.10
2018-11-12T03:12:35.887Z,7.72
2018-11-12T03:15:04.797Z,7.37
2018-11-12T03:17:33.157Z,9.93
2018-11-12T03:20:01.521Z,11.83
2018-11-12T03:22:29.916Z,10.63
2018-11-12T03:24:58.320Z,9.33
2018-11-12T03:27:26.779Z,8.10
2018-11-12T03:29:55.135Z,9.05
2018-11-12T04:19:23.549Z,10.40
2018-11-12T06:43:23.328Z,12.10
2018-11-12T06:45:52.175Z,13.85
2018-11-12T06:48:20.587Z,12.73
2018-11-12T06:50:48.976Z,6.90
2018-11-12T07:05:36.769Z,11.20
2018-11-12T07:08:05.412Z,11.35
2018-11-12T07:10:33.845Z,12.27
2018-11-12T07:13:02.247Z,14.03
2018-11-12T07:15:30.700Z,11.83
2018-11-12T07:17:59.072Z,11.70
2018-11-12T07:20:28.327Z,16.75
2018-11-12T07:27:54.529Z,14.70
2018-11-12T07:30:24.165Z,12.20
2018-11-12T08:24:50.458Z,11.20
2018-11-12T08:34:42.324Z,17.80
2018-11-12T08:37:10.768Z,16.37
2018-11-12T08:39:39.300Z,15.58
2018-11-12T08:42:07.821Z,15.53
2018-11-12T08:44:36.264Z,20.70
2018-11-12T08:47:04.832Z,13.70
2018-11-12T08:49:34.293Z,18.00
2018-11-12T09:24:03.909Z,17.73
2018-11-12T09:26:32.296Z,13.53
2018-11-12T09:29:00.684Z,12.73
2018-11-12T09:41:21.338Z,23.75
2018-11-12T09:43:49.740Z,18.87
2018-11-12T09:46:18.137Z,9.35
2018-11-12T09:48:46.603Z,14.38
2018-11-12T09:51:15.068Z,17.02
2018-11-12T09:53:44.340Z,13.87
2018-11-12T09:56:12.703Z,17.60
2018-11-12T09:58:41.122Z,21.93
2018-11-12T10:01:09.640Z,10.90
2018-11-12T10:03:39.044Z,10.60
2018-11-12T10:06:08.302Z,13.33
2018-11-12T10:08:38.526Z,15.00
2018-11-12T10:11:06.977Z,12.57
2018-11-12T10:13:35.129Z,12.65
